Time;durP1;ratioP1;P1;durP2;ratioP2;P2;SDS_P1;SDS_P2;PMS_P1;PMS_P2;Temp;Humidity;BMP_temperature;BMP_pressure;BME280_temperature;BME280_humidity;BME280_pressure;Samples;Min_cycle;Max_cycle;Signal;HPM_P1;HPM_P2
2023/10/01 00:00:46;;;;;;;8.57;4.87;;;;;;;17.92;52.68;97187.22;5048804;28;20196;-73
2023/10/01 00:03:14;;;;;;;8.77;4.97;;;;;;;18.06;52.34;97182.66;5047815;28;20210;-75
2023/10/01 00:05:42;;;;;;;9.63;4.93;;;;;;;18.13;52.35;97172.56;5048514;28;20207;-77
2023/10/01 00:08:12;;;;;;;11.90;5.20;;;;;;;18.13;52.60;97176.03;5049100;28;20272;-73
2023/10/01 00:10:41;;;;;;;5.93;4.77;;;;;;;18.00;53.14;97174.41;5047243;28;20196;-74
2023/10/01 00:13:08;;;;;;;8.47;4.80;;;;;;;17.81;53.32;97174.91;5048290;28;20231;-74
2023/10/01 00:15:37;;;;;;;9.33;5.03;;;;;;;17.77;53.28;97166.44;5047004;28;20196;-75
2023/10/01 00:18:06;;;;;;;9.67;5.10;;;;;;;17.78;53.28;97162.84;5048233;28;20234;-74
2023/10/01 00:20:33;;;;;;;10.60;5.17;;;;;;;17.78;53.04;97173.34;5047335;28;20200;-75
2023/10/01 00:23:02;;;;;;;10.27;5.53;;;;;;;17.76;52.84;97167.38;5047752;28;20235;-74
2023/10/01 00:25:32;;;;;;;13.37;6.00;;;;;;;17.69;52.79;97163.53;5047927;28;20661;-75
2023/10/01 00:28:01;;;;;;;8.77;6.10;;;;;;;17.64;52.76;97168.25;5046973;28;20202;-75
2023/10/01 00:30:31;;;;;;;9.87;6.27;;;;;;;17.76;53.10;97164.75;5047177;28;20580;-77
2023/10/01 00:33:06;;;;;;;9.70;5.30;;;;;;;17.58;53.21;97157.38;5046669;28;20237;-74
2023/10/01 00:35:39;;;;;;;8.00;5.77;;;;;;;17.51;53.84;97154.38;5048256;28;20203;-74
2023/10/01 00:38:10;;;;;;;12.67;5.47;;;;;;;17.42;54.52;97138.44;5046400;28;20203;-80
2023/10/01 00:40:42;;;;;;;7.80;4.90;;;;;;;17.47;54.42;97150.28;5046725;28;20289;-79
2023/10/01 00:43:11;;;;;;;10.37;5.40;;;;;;;17.53;54.31;97149.88;5048232;28;20200;-81
2023/10/01 00:45:39;;;;;;;8.17;5.30;;;;;;;17.57;54.22;97151.34;5044892;28;20702;-75
2023/10/01 00:48:14;;;;;;;8.47;5.70;;;;;;;17.71;53.70;97150.31;5046441;28;20203;-74
2023/10/01 00:50:42;;;;;;;9.93;5.67;;;;;;;17.84;53.39;97149.34;5045559;28;20699;-74
2023/10/01 00:53:10;;;;;;;9.87;5.30;;;;;;;17.67;54.18;97151.50;5045925;28;20223;-78
2023/10/01 00:55:38;;;;;;;8.77;5.20;;;;;;;17.72;53.80;97134.50;5047615;28;20205;-74
2023/10/01 00:58:05;;;;;;;7.53;5.40;;;;;;;17.80;53.94;97149.66;5045190;28;20207;-76
2023/10/01 01:00:32;;;;;;;9.83;5.60;;;;;;;17.86;53.39;97144.81;5047609;28;20682;-75
2023/10/01 01:03:06;;;;;;;17.67;5.87;;;;;;;17.37;53.19;97068.09;5046369;28;20675;-77
2023/10/01 01:05:41;;;;;;;8.50;5.53;;;;;;;18.00;52.67;97150.81;5047453;28;20345;-84
2023/10/01 01:08:09;;;;;;;10.07;5.50;;;;;;;18.05;52.37;97148.72;5045471;28;20242;-79
2023/10/01 01:10:41;;;;;;;7.80;5.57;;;;;;;17.84;52.22;97128.38;5046933;28;20682;-76
2023/10/01 01:13:08;;;;;;;10.33;5.37;;;;;;;17.95;52.51;97145.09;5047242;28;20227;-79
2023/10/01 01:15:38;;;;;;;7.03;5.17;;;;;;;17.99;52.66;97149.16;5046248;28;20598;-84
2023/10/01 01:18:07;;;;;;;9.70;5.53;;;;;;;18.03;52.36;97145.38;5047219;28;20223;-82
2023/10/01 01:20:43;;;;;;;5.97;4.93;;;;;;;17.83;52.85;97129.31;5046461;28;20212;-74
2023/10/01 01:23:15;;;;;;;11.33;5.50;;;;;;;17.59;53.16;97123.25;5046211;28;20209;-75
2023/10/01 01:25:44;;;;;;;7.23;5.17;;;;;;;17.62;54.13;97141.34;5047235;28;20210;-73
2023/10/01 01:28:24;;;;;;;11.63;5.63;;;;;;;17.70;53.24;97136.38;5045001;28;20198;-75
2023/10/01 01:30:52;;;;;;;11.30;5.57;;;;;;;17.75;53.46;97134.28;5045990;28;20203;-74
2023/10/01 01:33:26;;;;;;;9.07;5.67;;;;;;;17.57;53.82;97133.00;5046211;28;20327;-74
2023/10/01 01:35:54;;;;;;;12.17;5.53;;;;;;;17.64;53.53;97133.41;5047527;28;20195;-76
2023/10/01 01:38:22;;;;;;;7.27;5.37;;;;;;;17.73;53.17;97137.94;5045084;28;20245;-74
2023/10/01 01:40:51;;;;;;;7.47;5.17;;;;;;;17.57;53.57;97140.84;5046664;28;20749;-77
2023/10/01 01:43:30;;;;;;;9.53;5.33;;;;;;;17.57;53.86;97140.00;5045728;28;20210;-73
2023/10/01 01:46:08;;;;;;;7.60;4.90;;;;;;;17.44;54.07;97142.63;5044630;28;20234;-77
2023/10/01 01:48:40;;;;;;;8.97;5.47;;;;;;;17.24;54.61;97126.66;5047394;28;20635;-74
2023/10/01 01:51:08;;;;;;;7.77;5.00;;;;;;;17.38;54.75;97137.00;5044799;28;20216;-76
2023/10/01 01:53:36;;;;;;;9.63;5.50;;;;;;;17.45;54.33;97135.63;5045461;28;20230;-75
2023/10/01 01:56:12;;;;;;;8.27;4.93;;;;;;;17.44;54.93;97131.31;5045523;28;20231;-73
2023/10/01 01:58:41;;;;;;;8.60;5.00;;;;;;;17.43;54.53;97133.13;5048837;28;20198;-73
2023/10/01 02:01:08;;;;;;;8.83;5.13;;;;;;;17.30;54.90;97134.94;5049826;28;20238;-73
2023/10/01 02:03:37;;;;;;;7.40;4.93;;;;;;;17.20;55.50;97139.16;5049793;28;20210;-75
2023/10/01 02:06:08;;;;;;;8.53;5.57;;;;;;;17.03;55.81;97139.47;5051628;28;20202;-73
2023/10/01 02:11:24;;;;;;;8.97;5.10;;;;;;;16.86;56.23;97139.81;5029752;28;20201;-73
2023/10/01 02:13:55;;;;;;;7.50;4.97;;;;;;;16.90;56.46;97139.50;5029575;28;20230;-74
2023/10/01 02:19:11;;;;;;;9.93;5.23;;;;;;;16.37;58.46;97136.22;5030792;28;20238;-74
2023/10/01 02:21:43;;;;;;;11.90;5.30;;;;;;;16.08;59.26;97149.44;5030136;28;20195;-78
2023/10/01 02:24:13;;;;;;;7.13;5.10;;;;;;;15.81;59.97;97140.78;5028301;28;20209;-73
2023/10/01 02:26:41;;;;;;;13.80;6.20;;;;;;;15.63;60.79;97134.16;5030829;28;20216;-73
2023/10/01 02:29:13;;;;;;;10.47;5.73;;;;;;;15.58;61.04;97135.41;5042377;28;20202;-77
2023/10/01 02:31:56;;;;;;;7.33;5.67;;;;;;;15.59;61.12;97135.28;5050343;28;20195;-73
2023/10/01 02:34:26;;;;;;;11.00;5.10;;;;;;;15.27;62.14;97131.25;5049741;28;20203;-75
2023/10/01 02:36:55;;;;;;;11.60;6.23;;;;;;;15.17;62.59;97135.34;5032705;28;20634;-73
2023/10/01 02:39:28;;;;;;;7.47;4.83;;;;;;;15.05;63.03;97136.97;5049881;28;20198;-72
2023/10/01 02:44:40;;;;;;;8.10;5.20;;;;;;;15.16;62.18;97133.69;5048319;28;20194;-79
2023/10/01 02:47:18;;;;;;;9.57;5.47;;;;;;;15.06;61.77;97129.97;5048485;28;20192;-74
2023/10/01 02:49:53;;;;;;;10.27;5.87;;;;;;;15.17;61.17;97135.34;5046343;28;20194;-74
2023/10/01 02:52:36;;;;;;;12.37;6.60;;;;;;;15.21;61.25;97139.44;5046880;28;20249;-72
2023/10/01 02:55:17;;;;;;;10.07;5.67;;;;;;;15.19;60.99;97129.09;5044256;28;20198;-72
2023/10/01 02:57:50;;;;;;;14.07;5.90;;;;;;;15.27;60.41;97115.59;5047850;28;20672;-74
2023/10/01 03:02:49;;;;;;;8.53;5.03;;;;;;;15.35;60.15;97114.16;5048366;28;20284;-85
2023/10/01 03:07:53;;;;;;;9.30;5.10;;;;;;;15.84;58.51;97127.56;5049393;28;20275;-83
2023/10/01 03:12:56;;;;;;;8.97;5.37;;;;;;;15.87;58.68;97127.34;5047499;28;20229;-85
2023/10/01 03:15:28;;;;;;;8.67;5.03;;;;;;;15.86;58.27;97138.75;5049527;28;20602;-77
2023/10/01 03:18:34;;;;;;;8.10;5.17;;;;;;;15.95;57.86;97137.31;5051120;28;20296;-86
2023/10/01 03:26:08;;;;;;;11.93;5.37;;;;;;;15.75;58.59;97133.38;5048576;28;20273;-84
2023/10/01 03:31:25;;;;;;;8.60;5.00;;;;;;;15.78;58.63;97143.63;5049705;28;20220;-86
2023/10/01 03:33:58;;;;;;;12.23;5.77;;;;;;;15.80;58.78;97151.34;5047158;28;20230;-86
2023/10/01 03:36:27;;;;;;;13.60;5.00;;;;;;;15.79;58.70;97145.28;5049338;28;20199;-75
2023/10/01 03:39:23;;;;;;;8.77;5.60;;;;;;;15.76;58.84;97140.28;5048092;28;20255;-72
2023/10/01 03:45:19;;;;;;;8.23;5.47;;;;;;;15.75;59.23;97148.19;5038253;28;20603;-78
2023/10/01 03:47:50;;;;;;;8.37;5.77;;;;;;;15.85;58.84;97147.50;5048421;28;20272;-85
2023/10/01 03:50:21;;;;;;;9.40;4.97;;;;;;;15.81;59.00;97140.78;5048837;28;20205;-82
2023/10/01 03:52:52;;;;;;;10.40;5.17;;;;;;;15.95;58.82;97140.72;5049238;28;20238;-87
2023/10/01 03:55:28;;;;;;;7.93;4.97;;;;;;;16.10;58.03;97131.91;5047628;28;20260;-86
2023/10/01 03:58:42;;;;;;;8.07;4.73;;;;;;;16.23;57.75;97145.84;5049133;28;20284;-86
2023/10/01 04:00:53;;;;;;;5.83;4.97;;;;;;;16.40;57.69;97149.09;5044113;28;20581;-84
2023/10/01 04:03:21;;;;;;;7.30;5.10;;;;;;;16.45;57.05;97140.00;5048363;28;20694;-78
2023/10/01 04:05:49;;;;;;;7.37;4.63;;;;;;;16.53;57.13;97144.72;5048857;28;20198;-85
2023/10/01 04:08:16;;;;;;;11.07;4.90;;;;;;;16.53;57.11;97148.19;5047622;28;20241;-85
2023/10/01 04:10:47;;;;;;;9.67;5.77;;;;;;;16.70;56.95;97160.13;5048700;28;20206;-80
2023/10/01 04:15:55;;;;;;;9.07;4.80;;;;;;;16.62;56.90;97146.72;5049170;28;20194;-87
2023/10/01 04:18:24;;;;;;;8.77;5.13;;;;;;;16.59;57.11;97152.19;5048311;28;20622;-86
2023/10/01 04:23:33;;;;;;;9.80;5.20;;;;;;;16.40;57.56;97134.25;5049723;28;20278;-85
2023/10/01 04:26:06;;;;;;;8.53;5.83;;;;;;;16.22;58.55;97144.16;5047644;28;20629;-86
2023/10/01 04:28:36;;;;;;;16.50;5.47;;;;;;;16.37;57.96;97154.50;5048358;28;20687;-86
2023/10/01 04:31:09;;;;;;;8.90;4.97;;;;;;;16.44;57.78;97151.41;5047694;28;20209;-86
2023/10/01 04:33:42;;;;;;;7.90;4.90;;;;;;;16.65;57.47;97151.75;5047893;28;20282;-87
2023/10/01 04:36:11;;;;;;;7.67;4.97;;;;;;;16.78;57.40;97156.03;5049137;28;20278;-87
2023/10/01 04:38:41;;;;;;;10.00;5.07;;;;;;;16.31;57.49;97093.03;5047247;28;20641;-83
2023/10/01 04:41:19;;;;;;;8.93;5.27;;;;;;;16.79;57.16;97164.72;5048796;28;20298;-91
2023/10/01 04:43:55;;;;;;;8.47;5.30;;;;;;;16.51;58.05;97163.13;5048432;28;20738;-86
2023/10/01 04:46:25;;;;;;;7.70;4.80;;;;;;;16.60;57.61;97164.28;5047263;28;21020;-90
2023/10/01 04:48:52;;;;;;;7.63;5.60;;;;;;;16.86;57.31;97151.13;5048910;28;20199;-85
2023/10/01 04:51:22;;;;;;;9.33;4.97;;;;;;;16.72;57.22;97160.84;5047450;28;20210;-78
2023/10/01 04:53:49;;;;;;;8.60;5.10;;;;;;;17.05;56.44;97164.59;5048293;28;20226;-89
2023/10/01 04:56:25;;;;;;;7.43;5.53;;;;;;;17.19;55.90;97165.44;5045613;28;20203;-83
2023/10/01 04:58:54;;;;;;;11.90;5.47;;;;;;;17.26;56.12;97171.91;5048147;28;20200;-77
2023/10/01 05:01:25;;;;;;;8.80;5.77;;;;;;;17.49;55.45;97163.25;5046922;28;20229;-80
2023/10/01 05:03:52;;;;;;;24.07;6.43;;;;;;;17.46;55.75;97160.84;5047118;28;20195;-73
2023/10/01 05:06:20;;;;;;;12.17;5.37;;;;;;;17.41;55.63;97169.06;5047439;28;20192;-75
2023/10/01 05:08:51;;;;;;;9.03;5.20;;;;;;;17.59;55.97;97165.16;5046644;28;20207;-72
2023/10/01 05:11:22;;;;;;;9.33;5.27;;;;;;;17.71;55.24;97171.28;5047646;28;20200;-74
2023/10/01 05:13:51;;;;;;;8.10;5.30;;;;;;;17.62;55.63;97175.38;5044344;28;20914;-73
2023/10/01 05:16:26;;;;;;;10.77;5.43;;;;;;;17.91;54.46;97173.28;5047215;28;20199;-75
2023/10/01 05:19:10;;;;;;;9.43;5.90;;;;;;;18.03;54.72;97176.81;5047690;28;20245;-75
2023/10/01 05:21:46;;;;;;;13.57;5.73;;;;;;;18.20;53.88;97179.00;5045965;28;20237;-73
2023/10/01 05:24:16;;;;;;;6.60;4.67;;;;;;;18.57;53.07;97186.69;5046965;28;20725;-75
2023/10/01 05:26:44;;;;;;;14.90;5.70;;;;;;;18.69;52.66;97177.88;5046610;28;20200;-78
2023/10/01 05:29:13;;;;;;;9.37;6.03;;;;;;;18.81;51.98;97181.38;5047508;28;20271;-74
2023/10/01 05:31:41;;;;;;;7.67;5.00;;;;;;;18.86;52.21;97167.88;5046926;28;20727;-73
2023/10/01 05:34:11;;;;;;;9.93;4.63;;;;;;;18.95;52.35;97181.16;5052914;28;20228;-73
2023/10/01 05:36:38;;;;;;;11.10;5.40;;;;;;;19.07;52.19;97182.00;5053553;28;20216;-74
2023/10/01 05:39:11;;;;;;;6.83;4.83;;;;;;;19.25;51.90;97185.81;5052358;28;20190;-76
2023/10/01 05:41:44;;;;;;;9.93;5.30;;;;;;;19.32;51.80;97189.63;5054678;28;20624;-76
2023/10/01 05:44:12;;;;;;;9.10;5.07;;;;;;;19.58;51.53;97185.81;5053288;28;20707;-76
2023/10/01 05:46:40;;;;;;;6.83;4.50;;;;;;;19.71;52.15;97183.91;5050332;28;20200;-77
2023/10/01 05:49:08;;;;;;;11.43;5.70;;;;;;;19.98;50.91;97176.44;5053734;28;20262;-86
2023/10/01 05:51:45;;;;;;;7.30;4.90;;;;;;;20.14;50.56;97181.25;5052998;28;20292;-85
2023/10/01 05:54:18;;;;;;;6.87;4.60;;;;;;;20.39;50.18;97185.38;5054262;28;20221;-81
2023/10/01 05:56:49;;;;;;;7.87;4.50;;;;;;;20.54;50.19;97179.69;5050775;28;20288;-79
2023/10/01 05:59:22;;;;;;;11.00;4.63;;;;;;;20.70;48.64;97174.81;5045557;28;20575;-73
2023/10/01 06:01:50;;;;;;;5.70;4.43;;;;;;;21.05;48.04;97179.75;5050432;28;20240;-76
2023/10/01 06:04:18;;;;;;;8.03;4.27;;;;;;;21.15;47.61;97171.88;5052766;28;20576;-73
2023/10/01 06:06:46;;;;;;;6.47;4.17;;;;;;;21.15;47.42;97174.50;5053424;28;20739;-78
2023/10/01 06:09:16;;;;;;;6.60;3.80;;;;;;;21.27;47.32;97178.75;5052380;28;20194;-81
2023/10/01 06:11:49;;;;;;;5.90;4.07;;;;;;;21.46;46.42;97170.91;5053888;28;20234;-77
2023/10/01 06:17:04;;;;;;;7.10;3.90;;;;;;;21.68;45.96;97165.41;5042779;28;20325;-72
2023/10/01 06:19:33;;;;;;;6.40;4.60;;;;;;;21.94;45.38;97173.69;5052567;28;20573;-75
2023/10/01 06:22:14;;;;;;;7.83;4.83;;;;;;;21.94;45.15;97177.16;5051870;28;20254;-77
2023/10/01 06:24:43;;;;;;;10.53;4.87;;;;;;;22.01;45.46;97173.00;5051877;28;20250;-80
2023/10/01 06:27:17;;;;;;;6.97;4.40;;;;;;;22.09;44.94;97182.88;5054184;28;20206;-78
2023/10/01 06:29:51;;;;;;;9.17;4.47;;;;;;;22.01;45.00;97164.28;5048075;28;20802;-82
2023/10/01 06:32:23;;;;;;;5.43;4.17;;;;;;;22.23;44.49;97180.69;5052562;28;20199;-81
2023/10/01 06:34:53;;;;;;;7.63;4.10;;;;;;;22.27;44.58;97182.06;5052214;28;20240;-78
2023/10/01 06:37:21;;;;;;;9.67;4.50;;;;;;;22.38;44.01;97203.03;5053040;28;20261;-80
2023/10/01 06:39:48;;;;;;;8.43;4.20;;;;;;;22.42;44.67;97195.69;5052080;28;20211;-73
2023/10/01 06:42:23;;;;;;;8.90;4.77;;;;;;;22.50;43.99;97204.53;5053237;28;20891;-78
2023/10/01 06:44:54;;;;;;;13.70;4.97;;;;;;;22.43;43.97;97206.09;5048790;28;20197;-76
2023/10/01 06:47:23;;;;;;;9.00;4.40;;;;;;;22.60;43.37;97207.22;5050077;28;20220;-75
2023/10/01 06:52:35;;;;;;;6.77;4.33;;;;;;;22.84;43.12;97219.97;5047699;28;20197;-75
2023/10/01 06:55:03;;;;;;;5.97;3.97;;;;;;;22.84;43.36;97217.34;5049965;28;20225;-72
2023/10/01 06:57:33;;;;;;;12.00;4.80;;;;;;;22.74;42.77;97217.38;5049225;28;20673;-73
2023/10/01 07:00:03;;;;;;;7.57;4.27;;;;;;;22.84;43.14;97219.97;5049951;28;20204;-73
2023/10/01 07:02:31;;;;;;;6.93;4.90;;;;;;;22.85;43.40;97224.31;5048403;28;20221;-73
2023/10/01 07:04:58;;;;;;;5.67;4.07;;;;;;;22.75;42.87;97182.03;5049336;28;20227;-79
2023/10/01 07:07:29;;;;;;;8.47;4.17;;;;;;;22.87;42.53;97225.00;5049512;28;20200;-74
2023/10/01 07:09:57;;;;;;;6.43;4.27;;;;;;;23.03;42.34;97223.44;5049003;28;20696;-83
2023/10/01 07:12:24;;;;;;;8.07;4.33;;;;;;;22.95;42.49;97230.41;5049835;28;20814;-72
2023/10/01 07:14:52;;;;;;;4.97;3.63;;;;;;;23.00;42.51;97234.28;5048140;28;20234;-73
2023/10/01 07:17:24;;;;;;;6.63;4.20;;;;;;;22.72;42.36;97186.78;5047126;28;20232;-72
2023/10/01 07:20:18;;;;;;;4.73;3.60;;;;;;;22.93;41.87;97216.50;5027557;28;20758;-72
2023/10/01 07:22:46;;;;;;;6.27;3.60;;;;;;;22.82;42.05;97225.41;5028791;28;20737;-72
2023/10/01 07:25:37;;;;;;;7.03;4.17;;;;;;;22.94;42.28;97244.56;5030076;28;20229;-71
2023/10/01 07:28:07;;;;;;;8.10;4.43;;;;;;;23.12;41.69;97245.53;5029579;28;20304;-74
2023/10/01 07:30:45;;;;;;;5.07;4.17;;;;;;;23.26;41.82;97247.72;5030660;28;20245;-78
2023/10/01 07:33:22;;;;;;;6.50;4.33;;;;;;;23.29;41.33;97244.78;5028641;28;20222;-75
2023/10/01 07:35:59;;;;;;;6.50;3.90;;;;;;;23.23;41.32;97248.84;5028630;28;20202;-76
2023/10/01 07:38:31;;;;;;;7.20;3.80;;;;;;;23.11;41.77;97246.50;5028481;28;20199;-76
2023/10/01 07:40:58;;;;;;;9.73;3.90;;;;;;;23.15;41.56;97258.44;5028208;28;20233;-74
2023/10/01 07:43:28;;;;;;;5.90;4.60;;;;;;;23.37;41.54;97252.84;5028992;28;20210;-76
2023/10/01 07:45:57;;;;;;;7.20;3.90;;;;;;;23.36;41.01;97254.69;5028696;28;20196;-74
2023/10/01 07:48:27;;;;;;;8.13;4.57;;;;;;;23.25;40.99;97272.47;5027829;28;20188;-73
2023/10/01 07:50:55;;;;;;;9.10;4.10;;;;;;;23.39;40.78;97267.59;5028721;28;20203;-73
2023/10/01 07:53:27;;;;;;;9.70;4.50;;;;;;;23.37;41.29;97271.34;5025764;28;20224;-77
2023/10/01 07:55:58;;;;;;;5.37;4.30;;;;;;;23.39;40.34;97232.41;5027734;28;20707;-74
2023/10/01 07:58:45;;;;;;;5.77;3.83;;;;;;;23.50;40.46;97248.09;5028139;28;20193;-76
2023/10/01 08:04:08;;;;;;;4.63;3.97;;;;;;;23.66;40.29;97273.94;5028686;28;20770;-75
2023/10/01 08:07:15;;;;;;;7.67;4.97;;;;;;;23.87;39.36;97278.00;5027288;28;20211;-74
2023/10/01 08:10:37;;;;;;;6.87;4.70;;;;;;;24.00;38.74;97275.03;5027496;28;20195;-73
2023/10/01 08:13:24;;;;;;;7.53;4.60;;;;;;;23.97;39.02;97276.16;5027624;28;20798;-75
2023/10/01 08:15:57;;;;;;;8.73;4.53;;;;;;;23.89;39.39;97270.75;5027692;28;20199;-73
2023/10/01 08:18:34;;;;;;;6.20;4.57;;;;;;;23.94;38.67;97276.44;5027558;28;20752;-73
2023/10/01 08:21:04;;;;;;;6.00;4.23;;;;;;;23.96;38.38;97286.88;5028327;28;20200;-77
2023/10/01 08:23:36;;;;;;;7.73;4.87;;;;;;;23.82;38.52;97296.13;5027240;28;20778;-80
2023/10/01 08:26:43;;;;;;;5.43;4.70;;;;;;;23.41;40.02;97284.16;5028422;28;20223;-78
2023/10/01 08:28:57;;;;;;;6.83;4.80;;;;;;;23.75;40.18;97289.75;5027475;28;20199;-77
2023/10/01 08:34:27;;;;;;;11.03;5.00;;;;;;;23.97;37.97;97288.53;5025783;28;20262;-82
2023/10/01 08:37:37;;;;;;;10.37;4.73;;;;;;;23.95;38.22;97291.34;5026403;28;20270;-75
2023/10/01 08:41:01;;;;;;;8.07;5.13;;;;;;;24.01;37.46;97285.44;5026162;28;20200;-74
2023/10/01 08:44:30;;;;;;;7.63;4.60;;;;;;;24.10;37.81;97287.25;5027477;28;20697;-75
2023/10/01 08:47:37;;;;;;;7.60;4.83;;;;;;;24.08;36.80;97281.28;5027530;28;20253;-77
2023/10/01 08:50:45;;;;;;;6.17;4.60;;;;;;;23.98;37.69;97280.47;5030530;28;20768;-80
2023/10/01 08:54:14;;;;;;;7.60;5.00;;;;;;;24.32;38.60;97282.56;5023624;28;20192;-77
2023/10/01 08:57:38;;;;;;;5.40;4.00;;;;;;;23.99;37.09;97250.38;5027418;28;20229;-74
2023/10/01 09:01:14;;;;;;;10.23;4.23;;;;;;;24.14;35.64;97312.44;5027145;28;20197;-77
2023/10/01 09:04:48;;;;;;;5.83;4.60;;;;;;;24.10;36.82;97297.00;5026958;28;20219;-76
2023/10/01 09:08:15;;;;;;;8.00;4.80;;;;;;;24.42;35.11;97291.25;5025317;28;20204;-75
2023/10/01 09:11:35;;;;;;;8.17;4.57;;;;;;;24.36;35.55;97302.44;5025528;28;20198;-74
2023/10/01 09:14:56;;;;;;;8.13;4.80;;;;;;;24.03;36.42;97294.13;5026616;28;20318;-78
2023/10/01 09:18:20;;;;;;;7.13;4.50;;;;;;;24.43;36.81;97295.56;5027309;28;20736;-76
2023/10/01 09:21:47;;;;;;;7.40;4.50;;;;;;;24.48;35.75;97295.97;5026625;28;20188;-77
2023/10/01 09:25:09;;;;;;;7.40;4.93;;;;;;;24.59;35.33;97306.31;5025892;28;20208;-74
2023/10/01 09:28:31;;;;;;;8.37;4.50;;;;;;;24.64;35.75;97299.59;5025850;28;20291;-80
2023/10/01 09:31:58;;;;;;;7.13;4.77;;;;;;;24.61;36.00;97297.25;5027223;28;20712;-73
2023/10/01 09:35:30;;;;;;;7.13;4.20;;;;;;;24.38;36.69;97309.25;5026929;28;20270;-74
2023/10/01 09:39:03;;;;;;;9.40;4.43;;;;;;;24.65;35.79;97305.72;5026473;28;20196;-76
2023/10/01 09:42:28;;;;;;;8.10;5.00;;;;;;;24.72;35.07;97306.78;5025623;28;20232;-74
2023/10/01 09:45:39;;;;;;;6.43;4.03;;;;;;;24.58;35.25;97296.72;5025785;28;20186;-74
2023/10/01 09:48:28;;;;;;;5.07;4.40;;;;;;;24.59;35.57;97303.66;5029425;28;20216;-74
2023/10/01 09:51:41;;;;;;;5.73;4.50;;;;;;;24.65;35.04;97303.06;5026442;28;20208;-80
2023/10/01 09:54:28;;;;;;;6.53;4.13;;;;;;;24.36;35.33;97310.41;5031071;28;20690;-75
2023/10/01 09:57:37;;;;;;;9.30;4.57;;;;;;;24.19;35.70;97286.34;5038055;28;20191;-75
2023/10/01 10:00:18;;;;;;;7.50;4.77;;;;;;;24.43;35.73;97296.41;5027207;28;20197;-74
2023/10/01 10:02:53;;;;;;;6.93;4.37;;;;;;;24.48;36.11;97290.66;5035424;28;20209;-76
2023/10/01 10:05:25;;;;;;;5.63;4.10;;;;;;;24.44;35.45;97286.66;5046778;28;20666;-74
2023/10/01 10:07:54;;;;;;;7.20;5.10;;;;;;;24.69;35.08;97304.47;5044575;28;20206;-73
2023/10/01 10:10:26;;;;;;;11.50;5.20;;;;;;;24.68;35.41;97276.28;5046678;28;20704;-73
2023/10/01 10:12:58;;;;;;;7.83;4.27;;;;;;;24.84;35.22;97302.97;5047040;28;20291;-76
2023/10/01 10:15:55;;;;;;;10.27;5.07;;;;;;;24.93;35.21;97291.47;5044407;28;20227;-73
2023/10/01 10:18:23;;;;;;;11.07;4.57;;;;;;;25.04;35.75;97292.03;5046612;28;20234;-73
2023/10/01 10:21:00;;;;;;;6.27;4.43;;;;;;;24.98;35.31;97287.34;5048475;28;20204;-73
2023/10/01 10:23:30;;;;;;;8.07;4.63;;;;;;;24.77;35.62;97294.78;5050646;28;20188;-73
2023/10/01 10:26:12;;;;;;;7.67;4.50;;;;;;;24.67;36.21;97280.75;5050685;28;20188;-73
2023/10/01 10:28:53;;;;;;;12.77;5.00;;;;;;;24.78;36.53;97298.25;5049252;28;20274;-73
2023/10/01 10:31:30;;;;;;;5.87;4.57;;;;;;;24.82;36.66;97275.78;5050443;28;20997;-73
2023/10/01 10:34:25;;;;;;;8.67;4.47;;;;;;;25.00;36.15;97281.91;5049506;28;20736;-73
2023/10/01 10:36:58;;;;;;;7.20;3.97;;;;;;;24.94;36.19;97269.25;5049667;28;20210;-71
2023/10/01 10:39:44;;;;;;;7.67;5.20;;;;;;;24.89;36.44;97298.84;5050762;28;20224;-72
2023/10/01 10:42:28;;;;;;;8.10;4.50;;;;;;;24.43;36.73;97290.25;5049938;28;20217;-71
2023/10/01 10:45:24;;;;;;;5.70;4.17;;;;;;;24.76;37.09;97292.28;5050558;28;20779;-71
2023/10/01 10:48:03;;;;;;;7.40;4.73;;;;;;;24.98;36.19;97275.91;5050729;28;20280;-72
2023/10/01 10:50:44;;;;;;;8.33;5.23;;;;;;;24.88;36.58;97280.47;5048929;28;20229;-76
2023/10/01 10:53:24;;;;;;;6.93;4.60;;;;;;;24.81;37.14;97282.09;5065136;28;20239;-76
2023/10/01 10:55:53;;;;;;;8.70;4.70;;;;;;;24.79;37.03;97276.09;5049520;28;20234;-77
2023/10/01 10:58:31;;;;;;;6.37;4.47;;;;;;;25.06;36.47;97283.13;5049173;28;20259;-72
2023/10/01 11:01:15;;;;;;;11.40;5.23;;;;;;;25.20;36.28;97283.41;5041520;28;20201;-73
2023/10/01 11:03:48;;;;;;;6.33;4.43;;;;;;;25.14;36.69;97276.06;5041132;28;20207;-74
2023/10/01 11:06:22;;;;;;;6.47;4.30;;;;;;;25.08;36.02;97292.56;5049914;28;20213;-78
2023/10/01 11:08:53;;;;;;;8.60;4.57;;;;;;;25.03;36.79;97263.88;5049248;28;20208;-73
2023/10/01 11:11:21;;;;;;;6.97;4.70;;;;;;;25.15;35.87;97276.88;5063889;28;20288;-76
2023/10/01 11:14:16;;;;;;;8.50;5.40;;;;;;;25.15;35.62;97245.91;5049623;28;20321;-72
2023/10/01 11:16:47;;;;;;;6.47;4.73;;;;;;;25.12;35.97;97279.84;5048226;28;20221;-76
2023/10/01 11:19:16;;;;;;;6.90;5.00;;;;;;;25.06;36.34;97268.03;5049394;28;20635;-76
2023/10/01 11:21:55;;;;;;;8.27;4.57;;;;;;;25.15;35.79;97258.31;5042918;28;20216;-72
2023/10/01 11:24:34;;;;;;;7.47;4.80;;;;;;;25.28;35.96;97241.03;5042174;28;20208;-76
2023/10/01 11:35:33;;;;;;;5.60;4.43;;;;;;;25.42;35.67;97259.06;5048540;28;20317;-72
2023/10/01 11:38:14;;;;;;;8.87;4.60;;;;;;;25.29;35.99;97255.94;5046617;28;20210;-77
2023/10/01 11:43:43;;;;;;;6.77;4.60;;;;;;;25.49;35.45;97253.94;5047194;28;20200;-82
2023/10/01 11:46:18;;;;;;;7.20;4.90;;;;;;;25.54;34.87;97249.84;5047174;28;20201;-80
2023/10/01 11:49:02;;;;;;;6.07;4.33;;;;;;;25.34;35.30;97261.63;5046259;28;20300;-75
2023/10/01 11:51:50;;;;;;;8.27;5.00;;;;;;;25.34;34.82;97245.72;5028354;28;20208;-76
2023/10/01 11:54:53;;;;;;;15.97;4.97;;;;;;;25.43;35.11;97236.81;5027609;28;20763;-73
2023/10/01 11:57:22;;;;;;;7.37;5.07;;;;;;;25.50;35.22;97245.00;5027760;28;20216;-72
2023/10/01 11:59:58;;;;;;;7.40;5.00;;;;;;;25.21;35.51;97236.50;5027601;28;20265;-74
2023/10/01 12:02:26;;;;;;;6.73;4.80;;;;;;;25.35;36.13;97238.59;5027806;28;20201;-72
2023/10/01 12:04:56;;;;;;;16.27;5.67;;;;;;;25.31;35.83;97240.69;5028557;28;20198;-74
2023/10/01 12:07:33;;;;;;;6.60;4.80;;;;;;;25.07;36.16;97219.34;5028425;28;20193;-77
2023/10/01 12:10:05;;;;;;;7.50;4.97;;;;;;;25.16;35.77;97233.50;5030905;28;20707;-83
2023/10/01 12:12:39;;;;;;;7.27;4.47;;;;;;;25.02;35.67;97229.56;5027655;28;20199;-73
2023/10/01 12:17:54;;;;;;;7.43;5.00;;;;;;;24.92;36.25;97227.03;5028294;28;20237;-81
2023/10/01 12:20:28;;;;;;;9.30;5.50;;;;;;;25.14;35.99;97223.03;5028363;28;20202;-80
2023/10/01 12:23:11;;;;;;;9.50;4.50;;;;;;;25.13;35.20;97202.81;5028807;28;20689;-78
2023/10/01 12:25:53;;;;;;;5.00;4.27;;;;;;;25.29;35.34;97217.97;5028971;28;20668;-75
2023/10/01 12:28:28;;;;;;;8.43;4.60;;;;;;;25.11;35.11;97222.50;5043908;28;20217;-77
2023/10/01 12:30:57;;;;;;;7.27;4.80;;;;;;;25.01;35.47;97218.16;5048033;28;20205;-79
2023/10/01 12:33:41;;;;;;;7.33;4.47;;;;;;;25.30;35.36;97217.00;5050356;28;20268;-75
2023/10/01 12:44:25;;;;;;;6.93;4.70;;;;;;;24.73;35.27;97229.84;5047634;28;20212;-76
2023/10/01 12:47:15;;;;;;;6.90;4.97;;;;;;;24.78;35.40;97214.31;5044065;28;20231;-72
2023/10/01 12:49:42;;;;;;;5.43;4.60;;;;;;;24.58;35.71;97217.25;5041283;28;20208;-80
2023/10/01 12:52:14;;;;;;;9.10;4.97;;;;;;;24.25;35.34;97174.59;5047422;28;20589;-79
2023/10/01 12:54:42;;;;;;;9.50;5.43;;;;;;;24.63;35.32;97221.09;5047217;28;20321;-78
2023/10/01 12:57:09;;;;;;;8.50;5.13;;;;;;;24.89;34.18;97214.06;5047410;28;20308;-77
2023/10/01 12:59:49;;;;;;;6.83;4.70;;;;;;;24.96;33.76;97219.59;5045348;28;20250;-76
2023/10/01 13:02:22;;;;;;;6.07;3.97;;;;;;;24.42;33.24;97180.84;5048005;28;20300;-78
2023/10/01 13:05:19;;;;;;;7.07;4.37;;;;;;;24.81;33.88;97210.53;5047974;28;20218;-76
2023/10/01 13:07:56;;;;;;;10.03;4.87;;;;;;;24.86;34.18;97197.66;5047183;28;20232;-80
2023/10/01 13:10:37;;;;;;;7.57;4.90;;;;;;;24.85;34.37;97211.91;5048056;28;20205;-77
2023/10/01 13:13:07;;;;;;;8.97;4.83;;;;;;;24.66;34.79;97202.28;5046228;28;20246;-79
2023/10/01 13:15:40;;;;;;;8.90;5.70;;;;;;;24.57;34.58;97175.84;5028944;28;20256;-83
2023/10/01 13:18:18;;;;;;;9.47;4.53;;;;;;;24.65;34.51;97208.53;5043800;28;20730;-80
2023/10/01 13:23:28;;;;;;;6.33;4.50;;;;;;;25.00;33.60;97207.69;5059708;28;20207;-79
2023/10/01 13:26:14;;;;;;;7.20;4.37;;;;;;;25.20;33.79;97213.63;5066651;28;20326;-79
2023/10/01 13:28:46;;;;;;;8.63;5.00;;;;;;;24.88;34.07;97175.31;5067816;28;20653;-78